createdAt,value
2023-08-22T00:00:45.282Z,4.40
2023-08-22T00:03:16.327Z,4.15
2023-08-22T00:05:49.278Z,4.25
2023-08-22T00:08:18.979Z,4.32
2023-08-22T00:10:49.328Z,4.71
2023-08-22T00:13:19.422Z,4.80
2023-08-22T00:15:49.197Z,4.80
2023-08-22T00:18:18.967Z,4.79
2023-08-22T00:20:51.287Z,4.61
2023-08-22T00:23:20.965Z,4.88
2023-08-22T00:25:50.604Z,4.48
2023-08-22T00:28:20.331Z,4.40
2023-08-22T00:30:50.130Z,4.65
2023-08-22T00:33:20.049Z,4.93
2023-08-22T00:35:52.791Z,4.60
2023-08-22T00:38:22.547Z,4.80
2023-08-22T00:40:53.185Z,4.38
2023-08-22T00:43:22.902Z,4.55
2023-08-22T00:45:53.213Z,4.37
2023-08-22T00:48:23.002Z,4.62
2023-08-22T00:50:57.133Z,4.59
2023-08-22T00:53:27.037Z,4.50
2023-08-22T00:55:57.952Z,4.40
2023-08-22T00:58:28.209Z,4.37
2023-08-22T01:00:57.931Z,4.68
2023-08-22T01:03:28.696Z,4.45
2023-08-22T01:06:05.024Z,4.51
2023-08-22T01:08:40.686Z,4.64
2023-08-22T01:11:14.788Z,4.71
2023-08-22T01:13:48.880Z,4.73
2023-08-22T01:16:19.494Z,4.48
2023-08-22T01:18:49.631Z,4.54
2023-08-22T01:21:26.141Z,4.66
2023-08-22T01:23:59.161Z,4.54
2023-08-22T01:26:28.968Z,4.77
2023-08-22T01:29:02.370Z,4.69
2023-08-22T01:31:36.321Z,4.71
2023-08-22T01:34:10.950Z,4.80
2023-08-22T01:36:41.400Z,4.69
2023-08-22T01:39:15.838Z,4.91
2023-08-22T01:41:46.137Z,5.06
2023-08-22T01:44:16.012Z,5.05
2023-08-22T01:46:45.700Z,4.87
2023-08-22T01:49:15.468Z,5.20
2023-08-22T01:51:45.405Z,5.12
2023-08-22T01:54:18.183Z,4.71
2023-08-22T01:56:48.714Z,4.64
2023-08-22T01:59:18.508Z,4.83
2023-08-22T02:01:48.310Z,4.74
2023-08-22T02:04:18.019Z,4.63
2023-08-22T02:06:47.809Z,4.41
2023-08-22T02:09:20.172Z,4.68
2023-08-22T02:11:49.872Z,4.79
2023-08-22T02:14:19.710Z,4.59
2023-08-22T02:16:49.989Z,4.64
2023-08-22T02:19:20.464Z,4.92
2023-08-22T02:21:50.452Z,4.59
2023-08-22T02:24:22.835Z,4.53
2023-08-22T02:26:52.578Z,4.86
2023-08-22T02:29:23.686Z,4.87
2023-08-22T02:31:53.450Z,5.28
2023-08-22T02:34:23.259Z,5.10
2023-08-22T02:36:52.995Z,5.10
2023-08-22T02:39:25.353Z,5.00
2023-08-22T02:41:55.698Z,5.02
2023-08-22T02:44:26.329Z,5.04
2023-08-22T02:46:56.253Z,4.84
2023-08-22T02:49:26.040Z,4.79
2023-08-22T02:51:56.915Z,4.97
2023-08-22T02:54:29.260Z,4.80
2023-08-22T02:56:59.042Z,4.75
2023-08-22T02:59:28.888Z,4.65
2023-08-22T03:01:58.637Z,5.39
2023-08-22T03:04:28.664Z,5.69
2023-08-22T03:06:59.786Z,5.52
2023-08-22T03:09:32.195Z,5.41
2023-08-22T03:12:02.242Z,5.28
2023-08-22T03:14:31.961Z,5.23
2023-08-22T03:17:01.770Z,5.17
2023-08-22T03:19:31.701Z,5.70
2023-08-22T03:22:05.749Z,5.01
2023-08-22T03:24:38.026Z,4.95
2023-08-22T03:27:08.455Z,5.42
2023-08-22T03:29:38.197Z,5.36
2023-08-22T03:32:08.623Z,5.27
2023-08-22T03:34:38.480Z,4.90
2023-08-22T03:37:10.282Z,5.09
2023-08-22T03:39:42.732Z,5.41
2023-08-22T03:42:16.748Z,4.90
2023-08-22T03:44:47.111Z,4.90
2023-08-22T03:47:17.502Z,4.90
2023-08-22T03:49:49.492Z,5.39
2023-08-22T03:52:19.244Z,5.20
2023-08-22T03:54:51.572Z,5.11
2023-08-22T03:57:22.564Z,4.90
2023-08-22T03:59:52.405Z,5.12
2023-08-22T04:02:22.537Z,5.27
2023-08-22T04:04:52.348Z,5.42
2023-08-22T04:07:23.034Z,5.50
2023-08-22T04:09:55.433Z,6.14
2023-08-22T04:12:25.164Z,6.11
2023-08-22T04:14:55.668Z,5.59
2023-08-22T04:17:25.371Z,5.44
2023-08-22T04:19:55.294Z,5.00
2023-08-22T04:22:25.180Z,5.49
2023-08-22T04:24:57.736Z,4.91
2023-08-22T04:27:27.651Z,5.49
2023-08-22T04:29:57.700Z,5.29
2023-08-22T04:32:27.495Z,5.34
2023-08-22T04:34:58.788Z,5.62
2023-08-22T04:37:28.735Z,5.25
2023-08-22T04:40:01.039Z,5.56
2023-08-22T04:42:41.950Z,5.78
2023-08-22T04:45:13.858Z,5.42
2023-08-22T04:47:44.327Z,5.63
2023-08-22T04:50:15.550Z,5.42
2023-08-22T04:52:45.249Z,5.55
2023-08-22T04:55:17.594Z,5.63
2023-08-22T04:57:47.383Z,5.71
2023-08-22T05:00:23.477Z,5.85
2023-08-22T05:02:54.255Z,6.02
2023-08-22T05:05:24.099Z,6.41
2023-08-22T05:07:53.863Z,5.95
2023-08-22T05:10:26.165Z,5.93
2023-08-22T05:12:55.886Z,5.80
2023-08-22T05:15:27.740Z,6.00
2023-08-22T05:17:58.845Z,5.84
2023-08-22T05:20:29.330Z,5.84
2023-08-22T05:22:59.072Z,6.14
2023-08-22T05:25:31.384Z,6.31
2023-08-22T05:28:01.110Z,6.46
2023-08-22T05:30:30.957Z,6.39
2023-08-22T05:33:00.698Z,6.73
2023-08-22T05:35:30.548Z,6.90
2023-08-22T05:38:00.512Z,7.08
2023-08-22T05:40:33.454Z,8.42
2023-08-22T05:43:03.208Z,9.12
2023-08-22T05:45:33.105Z,11.01
2023-08-22T05:48:02.967Z,12.70
2023-08-22T05:50:32.694Z,14.19
2023-08-22T05:53:02.709Z,14.14
2023-08-22T05:55:36.125Z,15.32
2023-08-22T05:58:07.621Z,19.23
2023-08-22T06:00:38.088Z,22.40
2023-08-22T06:03:08.198Z,22.13
2023-08-22T06:05:38.389Z,22.46
2023-08-22T06:08:08.658Z,21.94
2023-08-22T06:10:41.138Z,20.99
2023-08-22T06:13:10.917Z,20.65
2023-08-22T06:15:42.436Z,19.47
2023-08-22T06:18:14.465Z,19.42
2023-08-22T06:20:45.384Z,19.01
2023-08-22T06:23:15.236Z,18.40
2023-08-22T06:25:50.159Z,19.12
2023-08-22T06:28:21.173Z,17.91
2023-08-22T06:30:51.143Z,16.99
2023-08-22T06:33:20.950Z,16.99
2023-08-22T06:35:53.122Z,16.82
2023-08-22T06:38:22.928Z,15.71
2023-08-22T06:40:56.416Z,16.06
2023-08-22T06:43:26.312Z,15.76
2023-08-22T06:46:00.006Z,16.02
2023-08-22T06:48:41.159Z,15.93
2023-08-22T06:51:12.600Z,15.83
2023-08-22T06:53:42.285Z,16.48
2023-08-22T06:56:14.608Z,17.43
2023-08-22T06:58:44.497Z,17.04
2023-08-22T07:01:14.646Z,17.15
2023-08-22T07:03:44.705Z,16.20
2023-08-22T07:06:14.430Z,16.54
2023-08-22T07:08:44.182Z,15.00
2023-08-22T07:11:16.470Z,14.48
2023-08-22T07:13:46.182Z,15.14
2023-08-22T07:16:18.145Z,14.96
2023-08-22T07:18:48.873Z,14.30
2023-08-22T07:21:18.561Z,15.13
2023-08-22T07:23:48.307Z,16.05
2023-08-22T07:26:20.619Z,16.42
2023-08-22T07:28:50.428Z,15.27
2023-08-22T07:31:20.240Z,14.73
2023-08-22T07:33:50.001Z,14.54
2023-08-22T07:36:23.514Z,14.17
2023-08-22T07:38:53.218Z,14.46
2023-08-22T07:41:25.498Z,14.24
2023-08-22T07:43:55.227Z,13.31
2023-08-22T07:46:25.324Z,12.03
2023-08-22T07:48:55.057Z,11.15
2023-08-22T07:51:24.763Z,10.57
2023-08-22T07:53:54.434Z,10.81
2023-08-22T07:56:26.767Z,9.90
2023-08-22T07:58:56.471Z,9.83
2023-08-22T08:01:26.251Z,9.56
2023-08-22T08:03:56.565Z,8.35
2023-08-22T08:06:26.421Z,7.83
2023-08-22T08:08:56.429Z,7.89
2023-08-22T08:11:28.714Z,7.46
2023-08-22T08:13:58.451Z,6.72
2023-08-22T08:19:05.787Z,5.79
2023-08-22T08:21:35.645Z,6.22
2023-08-22T08:24:06.257Z,6.71
2023-08-22T08:26:39.022Z,6.75
2023-08-22T08:29:08.714Z,7.10
2023-08-22T08:31:38.408Z,7.32
2023-08-22T08:34:08.121Z,7.59
2023-08-22T08:36:37.774Z,7.51
2023-08-22T08:39:07.589Z,7.37
2023-08-22T08:41:41.847Z,6.81
2023-08-22T08:44:11.825Z,6.89
2023-08-22T08:46:42.159Z,7.16
2023-08-22T08:49:12.657Z,7.16
2023-08-22T08:51:43.501Z,6.83
2023-08-22T08:54:13.538Z,6.86
2023-08-22T08:56:45.825Z,6.72
2023-08-22T08:59:16.213Z,6.65
2023-08-22T09:01:47.836Z,6.45
2023-08-22T09:04:17.626Z,6.21
2023-08-22T09:06:48.491Z,6.64
2023-08-22T09:09:18.926Z,6.97
2023-08-22T09:11:52.266Z,6.69
2023-08-22T09:14:23.229Z,7.12
2023-08-22T09:16:53.578Z,7.40
2023-08-22T09:19:25.691Z,7.61
2023-08-22T09:22:03.380Z,8.39
2023-08-22T09:24:37.222Z,8.58
2023-08-22T09:27:10.974Z,8.28
2023-08-22T09:29:41.007Z,8.60
2023-08-22T09:32:10.964Z,8.44
2023-08-22T09:34:41.344Z,8.87
2023-08-22T09:37:11.190Z,8.92
2023-08-22T09:39:41.156Z,8.88
2023-08-22T09:42:13.557Z,9.06
2023-08-22T09:44:43.499Z,9.36
2023-08-22T09:47:13.904Z,9.45
2023-08-22T09:49:44.590Z,9.10
2023-08-22T09:52:14.837Z,9.79
2023-08-22T09:54:47.017Z,9.12
2023-08-22T09:57:20.870Z,9.86
2023-08-22T09:59:51.705Z,9.56
2023-08-22T10:02:22.515Z,9.85
2023-08-22T10:04:53.261Z,10.11
2023-08-22T10:07:24.586Z,10.23
2023-08-22T10:09:54.416Z,10.49
2023-08-22T10:12:29.860Z,10.42
2023-08-22T10:15:02.594Z,9.39
2023-08-22T10:17:32.768Z,9.95
2023-08-22T10:20:06.047Z,9.11
2023-08-22T10:22:36.771Z,8.65
2023-08-22T10:25:08.239Z,8.66
2023-08-22T10:27:43.898Z,8.20
2023-08-22T10:30:21.304Z,8.32
2023-08-22T10:33:13.830Z,8.34
2023-08-22T10:36:05.209Z,9.29
2023-08-22T10:38:49.939Z,9.07
2023-08-22T10:41:19.657Z,10.09
2023-08-22T10:43:52.080Z,10.50
2023-08-22T10:46:21.804Z,9.67
2023-08-22T10:48:51.517Z,10.23
2023-08-22T10:51:21.251Z,11.81
2023-08-22T10:53:51.023Z,11.22
2023-08-22T10:56:23.357Z,11.34
2023-08-22T10:59:06.898Z,11.62
2023-08-22T11:01:36.913Z,12.88
2023-08-22T11:04:09.837Z,13.61
2023-08-22T11:06:41.291Z,13.19
2023-08-22T11:09:12.112Z,14.16
2023-08-22T11:11:42.144Z,14.99
2023-08-22T11:14:14.366Z,15.49
2023-08-22T11:16:44.103Z,14.34
2023-08-22T11:19:13.939Z,13.31
2023-08-22T11:21:43.700Z,12.51
2023-08-22T11:24:14.810Z,11.53
2023-08-22T11:26:44.689Z,12.54
2023-08-22T11:29:19.107Z,12.39
2023-08-22T11:31:49.747Z,10.64
2023-08-22T11:34:19.446Z,12.63
2023-08-22T11:36:49.265Z,11.93
2023-08-22T11:39:19.247Z,11.92
2023-08-22T11:41:49.094Z,12.84
2023-08-22T11:44:23.055Z,11.95
2023-08-22T11:46:53.340Z,11.07
2023-08-22T11:49:43.595Z,10.17
2023-08-22T11:52:13.701Z,10.77
2023-08-22T11:54:46.351Z,11.30
2023-08-22T11:57:16.110Z,11.34
2023-08-22T11:59:48.554Z,11.08
2023-08-22T12:02:18.401Z,10.12
2023-08-22T12:04:49.373Z,9.59
2023-08-22T12:07:19.089Z,9.66
2023-08-22T12:10:00.945Z,10.03
2023-08-22T12:12:30.920Z,9.81
2023-08-22T12:15:03.294Z,8.71
2023-08-22T12:17:33.057Z,8.12
2023-08-22T12:20:02.753Z,8.75
2023-08-22T12:22:32.530Z,8.01
2023-08-22T12:25:02.212Z,7.55
2023-08-22T12:27:31.934Z,5.72
2023-08-22T12:30:04.222Z,4.80
2023-08-22T12:32:35.374Z,3.56
2023-08-22T12:35:05.184Z,2.68
2023-08-22T12:37:35.114Z,2.78
2023-08-22T12:40:06.362Z,2.81
2023-08-22T12:42:36.045Z,2.39
2023-08-22T12:45:08.733Z,2.23
2023-08-22T12:47:39.544Z,1.77
2023-08-22T12:50:10.383Z,1.63
2023-08-22T12:52:40.751Z,1.85
2023-08-22T12:55:11.345Z,1.90
2023-08-22T12:57:42.064Z,2.06
2023-08-22T13:00:14.880Z,1.75
2023-08-22T13:02:45.771Z,2.49
2023-08-22T13:05:16.993Z,1.67
2023-08-22T13:07:47.461Z,1.76
2023-08-22T13:10:17.351Z,1.74
2023-08-22T13:12:47.130Z,1.55
2023-08-22T13:15:19.712Z,1.85
2023-08-22T13:17:49.688Z,1.84
2023-08-22T13:20:19.491Z,1.90
2023-08-22T13:22:49.215Z,1.67
2023-08-22T13:25:18.932Z,1.77
2023-08-22T13:27:48.962Z,1.94
2023-08-22T13:30:21.521Z,1.82
2023-08-22T13:32:51.325Z,1.81
2023-08-22T13:35:21.930Z,1.62
2023-08-22T13:37:53.617Z,1.84
2023-08-22T13:40:23.353Z,1.81
2023-08-22T13:42:53.045Z,1.92
2023-08-22T13:45:25.387Z,1.87
2023-08-22T13:47:57.179Z,1.77
2023-08-22T13:50:26.940Z,1.68
2023-08-22T13:52:56.627Z,1.58
2023-08-22T13:55:26.304Z,1.36
2023-08-22T13:57:57.340Z,1.52
2023-08-22T14:00:29.668Z,1.29
2023-08-22T14:02:59.431Z,1.24
2023-08-22T14:05:29.261Z,1.12
2023-08-22T14:07:59.067Z,1.17
2023-08-22T14:10:28.855Z,0.98
2023-08-22T14:12:58.599Z,1.04
2023-08-22T14:15:30.895Z,1.06
2023-08-22T14:18:00.648Z,1.19
2023-08-22T14:20:30.470Z,1.21
2023-08-22T14:23:00.447Z,1.49
2023-08-22T14:25:30.185Z,1.33
2023-08-22T14:27:59.900Z,1.40
2023-08-22T14:30:32.229Z,1.42
2023-08-22T14:33:02.033Z,1.58
2023-08-22T14:35:31.883Z,1.68
2023-08-22T14:38:04.572Z,1.72
2023-08-22T14:40:34.316Z,1.71
2023-08-22T14:43:04.089Z,1.55
2023-08-22T14:45:38.037Z,1.71
2023-08-22T14:48:09.068Z,1.78
2023-08-22T14:50:43.037Z,1.71
2023-08-22T14:53:13.785Z,1.95
2023-08-22T14:55:43.970Z,2.03
2023-08-22T14:58:14.419Z,1.79
2023-08-22T15:00:48.557Z,1.99
2023-08-22T15:03:18.385Z,1.98
2023-08-22T15:05:48.292Z,1.97
2023-08-22T15:08:17.983Z,2.00
2023-08-22T15:10:52.300Z,2.00
2023-08-22T15:13:22.665Z,2.29
2023-08-22T15:15:58.757Z,2.08
2023-08-22T15:18:29.068Z,2.17
2023-08-22T15:21:02.192Z,2.27
2023-08-22T15:23:32.339Z,2.13
2023-08-22T15:26:02.210Z,2.20
2023-08-22T15:28:31.925Z,2.39
2023-08-22T15:31:04.357Z,2.67
2023-08-22T15:33:34.172Z,2.44
2023-08-22T15:36:04.605Z,2.53
2023-08-22T15:38:35.843Z,2.79
2023-08-22T15:41:07.267Z,4.09
2023-08-22T15:43:37.062Z,6.74
2023-08-22T15:46:09.400Z,3.99
2023-08-22T15:48:39.216Z,3.80
2023-08-22T15:51:08.937Z,4.08
2023-08-22T15:53:38.752Z,4.31
2023-08-22T15:56:08.489Z,3.31
2023-08-22T15:58:38.242Z,8.18
2023-08-22T16:01:10.629Z,5.22
2023-08-22T16:03:40.377Z,3.49
2023-08-22T16:06:12.056Z,2.81
2023-08-22T16:08:41.834Z,2.88
2023-08-22T16:11:12.091Z,2.67
2023-08-22T16:13:41.766Z,3.14
2023-08-22T16:16:14.081Z,2.83
2023-08-22T16:18:43.876Z,3.52
2023-08-22T16:21:13.569Z,3.49
2023-08-22T16:23:43.386Z,3.36
2023-08-22T16:26:13.293Z,3.38
2023-08-22T16:28:43.630Z,3.27
2023-08-22T16:31:16.052Z,3.63
2023-08-22T16:33:45.786Z,3.63
2023-08-22T16:36:15.737Z,4.05
2023-08-22T16:38:45.414Z,3.50
2023-08-22T16:41:15.081Z,3.34
2023-08-22T16:43:44.842Z,3.07
2023-08-22T16:46:17.112Z,2.80
2023-08-22T16:48:46.827Z,2.71
2023-08-22T16:51:17.937Z,2.36
2023-08-22T16:53:47.749Z,2.11
2023-08-22T16:56:17.457Z,1.86
2023-08-22T16:58:49.955Z,1.99
2023-08-22T17:01:31.592Z,1.88
2023-08-22T17:04:01.338Z,1.87
2023-08-22T17:06:31.144Z,1.67
2023-08-22T17:09:03.172Z,1.85
2023-08-22T17:11:32.984Z,1.92
2023-08-22T17:14:02.937Z,1.83
2023-08-22T17:16:35.380Z,1.82
2023-08-22T17:19:05.119Z,1.86
2023-08-22T17:21:34.866Z,2.00
2023-08-22T17:24:04.556Z,2.32
2023-08-22T17:26:34.280Z,2.39
2023-08-22T17:29:04.074Z,2.33
2023-08-22T17:31:36.366Z,2.55
2023-08-22T17:34:06.224Z,2.48
2023-08-22T17:36:36.055Z,2.61
2023-08-22T17:39:05.886Z,2.24
2023-08-22T17:41:35.575Z,2.62
2023-08-22T17:44:05.305Z,2.59
2023-08-22T17:46:37.584Z,3.23
2023-08-22T17:49:07.312Z,3.35
2023-08-22T17:51:37.076Z,3.12
2023-08-22T17:54:08.412Z,3.25
2023-08-22T17:56:38.488Z,3.37
2023-08-22T17:59:08.312Z,3.43
2023-08-22T18:01:40.819Z,3.53
2023-08-22T18:04:10.579Z,3.42
2023-08-22T18:06:40.548Z,3.07
2023-08-22T18:09:10.282Z,3.12
2023-08-22T18:11:40.070Z,3.13
2023-08-22T18:14:09.811Z,3.17
2023-08-22T18:16:42.177Z,3.19
2023-08-22T18:19:12.041Z,3.06
2023-08-22T18:21:41.733Z,3.32
2023-08-22T18:24:11.421Z,3.26
2023-08-22T18:26:41.090Z,2.94
2023-08-22T18:29:10.756Z,3.18
2023-08-22T18:31:43.018Z,3.47
2023-08-22T18:34:12.700Z,2.96
2023-08-22T18:36:42.416Z,3.42
2023-08-22T18:39:12.132Z,3.49
2023-08-22T18:41:44.676Z,3.62
2023-08-22T18:44:14.552Z,3.78
2023-08-22T18:46:46.898Z,3.59
2023-08-22T18:49:16.575Z,3.45
2023-08-22T18:51:47.947Z,3.46
2023-08-22T18:54:17.652Z,3.55
2023-08-22T18:56:47.368Z,3.42
2023-08-22T18:59:17.043Z,3.51
2023-08-22T19:01:49.358Z,3.86
2023-08-22T19:04:19.062Z,4.04
2023-08-22T19:06:48.769Z,4.17
2023-08-22T19:09:18.555Z,3.89
2023-08-22T19:11:48.337Z,3.77
2023-08-22T19:14:18.080Z,3.99
2023-08-22T19:16:50.499Z,4.26
2023-08-22T19:19:20.287Z,4.23
2023-08-22T19:21:50.441Z,4.26
2023-08-22T19:24:20.088Z,3.61
2023-08-22T19:26:49.766Z,4.07
2023-08-22T19:29:19.636Z,4.02
2023-08-22T19:32:05.991Z,4.08
2023-08-22T19:34:41.921Z,3.57
2023-08-22T19:37:11.718Z,6.65
2023-08-22T19:39:41.418Z,4.36
2023-08-22T19:42:11.190Z,3.57
2023-08-22T19:44:40.938Z,3.71
2023-08-22T19:47:13.314Z,3.87
2023-08-22T19:49:43.096Z,3.69
2023-08-22T19:52:12.765Z,3.77
2023-08-22T19:54:42.636Z,6.08
2023-08-22T19:57:12.774Z,5.69
2023-08-22T19:59:42.432Z,4.03
2023-08-22T20:02:14.769Z,4.31
2023-08-22T20:04:44.484Z,4.80
2023-08-22T20:07:14.208Z,4.83
2023-08-22T20:09:43.941Z,4.45
2023-08-22T20:12:14.206Z,4.52
2023-08-22T20:14:44.070Z,4.50
2023-08-22T20:17:16.387Z,4.59
2023-08-22T20:19:46.074Z,4.60
2023-08-22T20:22:15.724Z,4.76
2023-08-22T20:24:45.440Z,5.02
2023-08-22T20:27:15.353Z,5.89
2023-08-22T20:29:45.408Z,6.40
2023-08-22T20:32:17.736Z,7.41
2023-08-22T20:34:49.377Z,8.15
2023-08-22T20:37:19.192Z,7.38
2023-08-22T20:39:48.874Z,7.01
2023-08-22T20:42:19.513Z,6.69
2023-08-22T20:44:49.256Z,6.10
2023-08-22T20:47:21.506Z,6.32
2023-08-22T20:49:51.505Z,5.65
2023-08-22T20:52:21.259Z,5.98
2023-08-22T20:54:51.317Z,5.75
2023-08-22T20:57:21.078Z,5.88
2023-08-22T20:59:50.893Z,5.60
2023-08-22T21:02:23.377Z,5.39
2023-08-22T21:04:53.156Z,5.24
2023-08-22T21:07:22.784Z,5.57
2023-08-22T21:09:52.473Z,6.30
2023-08-22T21:12:22.125Z,5.64
2023-08-22T21:14:51.814Z,5.87
2023-08-22T21:17:24.151Z,6.00
2023-08-22T21:19:53.945Z,5.74
2023-08-22T21:22:23.895Z,5.52
2023-08-22T21:24:53.626Z,5.35
2023-08-22T21:27:23.358Z,5.42
2023-08-22T21:29:53.210Z,5.65
2023-08-22T21:32:25.697Z,4.97
2023-08-22T21:34:55.690Z,4.95
2023-08-22T21:37:26.680Z,5.09
2023-08-22T21:39:56.366Z,4.77
2023-08-22T21:42:26.081Z,4.69
2023-08-22T21:44:55.809Z,4.82
2023-08-22T21:47:28.363Z,5.09
2023-08-22T21:49:58.363Z,5.16
2023-08-22T21:52:28.039Z,5.41
2023-08-22T21:54:57.761Z,5.26
2023-08-22T21:57:27.451Z,5.28
2023-08-22T21:59:57.308Z,5.50
2023-08-22T22:02:29.810Z,5.01
2023-08-22T22:04:59.548Z,5.18
2023-08-22T22:07:29.258Z,5.01
2023-08-22T22:09:58.957Z,5.36
2023-08-22T22:12:28.873Z,5.12
2023-08-22T22:14:58.725Z,5.22
2023-08-22T22:17:31.088Z,5.22
2023-08-22T22:20:00.964Z,5.65
2023-08-22T22:22:30.988Z,5.43
2023-08-22T22:25:00.794Z,5.18
2023-08-22T22:27:30.446Z,5.63
2023-08-22T22:30:00.186Z,5.46
2023-08-22T22:32:32.519Z,5.61
2023-08-22T22:35:02.209Z,5.76
2023-08-22T22:37:32.015Z,5.45
2023-08-22T22:40:04.715Z,5.53
2023-08-22T22:42:34.377Z,5.79
2023-08-22T22:45:05.324Z,5.66
2023-08-22T22:47:37.688Z,5.83
2023-08-22T22:50:08.496Z,5.91
2023-08-22T22:52:38.239Z,5.45
2023-08-22T22:55:08.420Z,5.57
2023-08-22T22:57:38.569Z,5.61
2023-08-22T23:00:10.265Z,5.59
2023-08-22T23:02:42.724Z,5.45
2023-08-22T23:05:12.550Z,5.63
2023-08-22T23:07:42.827Z,5.75
2023-08-22T23:10:12.953Z,5.68
2023-08-22T23:12:43.301Z,6.12
2023-08-22T23:15:13.438Z,5.87
2023-08-22T23:17:47.511Z,6.18
2023-08-22T23:20:18.879Z,6.04
2023-08-22T23:22:50.276Z,5.96
2023-08-22T23:25:20.157Z,6.11
2023-08-22T23:27:50.080Z,6.38
2023-08-22T23:30:20.106Z,6.42
2023-08-22T23:32:53.038Z,6.26
2023-08-22T23:35:22.922Z,6.34
2023-08-22T23:37:52.637Z,6.50
2023-08-22T23:40:26.553Z,6.23
2023-08-22T23:42:57.186Z,6.48
2023-08-22T23:45:28.944Z,6.10
2023-08-22T23:48:01.863Z,6.57
2023-08-22T23:50:34.299Z,6.66
2023-08-22T23:53:04.849Z,6.40
2023-08-22T23:55:34.606Z,6.41
2023-08-22T23:58:04.373Z,6.25
